createdAt,value
2023-07-28T00:00:40.297Z,3.25
2023-07-28T00:03:43.387Z,2.72
2023-07-28T00:06:46.379Z,2.83
2023-07-28T00:09:49.254Z,2.80
2023-07-28T00:12:52.110Z,2.77
2023-07-28T00:15:54.997Z,2.70
2023-07-28T00:18:57.747Z,2.97
2023-07-28T00:22:00.553Z,3.42
2023-07-28T00:25:04.064Z,3.05
2023-07-28T00:28:07.024Z,2.97
2023-07-28T00:31:09.889Z,3.70
2023-07-28T00:34:12.920Z,2.85
2023-07-28T00:37:15.646Z,3.00
2023-07-28T00:40:18.590Z,3.30
2023-07-28T00:43:21.402Z,3.00
2023-07-28T00:46:24.460Z,3.67
2023-07-28T00:49:27.344Z,2.90
2023-07-28T00:52:30.294Z,2.92
2023-07-28T00:55:33.024Z,4.70
2023-07-28T00:58:35.938Z,3.00
2023-07-28T01:01:38.695Z,2.70
2023-07-28T01:04:41.939Z,3.00
2023-07-28T01:07:55.259Z,2.95
2023-07-28T01:10:58.127Z,2.90
2023-07-28T01:14:00.782Z,3.17
2023-07-28T01:17:03.789Z,2.70
2023-07-28T01:20:06.985Z,2.80
2023-07-28T01:23:17.871Z,2.70
2023-07-28T01:26:33.192Z,3.03
2023-07-28T01:29:36.961Z,3.17
2023-07-28T01:32:39.710Z,4.45
2023-07-28T01:35:42.449Z,2.85
2023-07-28T01:38:45.237Z,3.20
2023-07-28T01:41:48.122Z,2.70
2023-07-28T01:44:51.944Z,3.30
2023-07-28T01:47:54.728Z,3.28
2023-07-28T01:50:57.530Z,2.70
2023-07-28T01:54:00.317Z,2.95
2023-07-28T01:57:03.041Z,2.90
2023-07-28T02:00:06.554Z,2.87
2023-07-28T02:03:09.299Z,2.80
2023-07-28T02:06:12.117Z,2.65
2023-07-28T02:09:14.770Z,3.10
2023-07-28T02:12:17.512Z,2.60
2023-07-28T02:15:20.475Z,2.80
2023-07-28T02:18:23.280Z,3.22
2023-07-28T02:21:26.105Z,3.08
2023-07-28T02:24:28.944Z,2.80
2023-07-28T02:27:31.620Z,2.65
2023-07-28T02:30:34.546Z,2.87
2023-07-28T02:33:38.113Z,2.80
2023-07-28T02:36:40.911Z,3.62
2023-07-28T02:39:43.636Z,3.22
2023-07-28T02:42:46.477Z,2.80
2023-07-28T02:45:54.850Z,3.50
2023-07-28T02:48:58.344Z,2.70
2023-07-28T02:52:01.505Z,2.50
2023-07-28T02:55:04.478Z,2.75
2023-07-28T02:58:07.158Z,2.60
2023-07-28T03:01:10.163Z,2.90
2023-07-28T03:04:12.851Z,2.70
2023-07-28T03:07:15.684Z,3.15
2023-07-28T03:10:18.491Z,2.75
2023-07-28T03:13:21.244Z,2.80
2023-07-28T03:16:24.043Z,2.53
2023-07-28T03:19:26.842Z,2.70
2023-07-28T03:22:30.767Z,2.80
2023-07-28T03:25:34.281Z,2.72
2023-07-28T03:28:37.008Z,2.85
2023-07-28T03:31:39.772Z,2.97
2023-07-28T03:34:42.584Z,2.70
2023-07-28T03:37:45.405Z,2.60
2023-07-28T03:40:48.107Z,3.10
2023-07-28T03:43:51.049Z,2.50
2023-07-28T03:46:53.946Z,2.80
2023-07-28T03:49:56.939Z,2.40
2023-07-28T03:52:59.719Z,2.80
2023-07-28T03:56:04.333Z,3.37
2023-07-28T03:59:07.073Z,2.62
2023-07-28T04:02:09.852Z,2.43
2023-07-28T04:05:13.041Z,2.85
2023-07-28T04:08:15.863Z,2.80
2023-07-28T04:11:18.659Z,2.85
2023-07-28T04:14:21.421Z,2.80
2023-07-28T04:17:24.158Z,2.60
2023-07-28T04:20:27.021Z,3.00
2023-07-28T04:23:29.779Z,2.50
2023-07-28T04:26:33.010Z,3.15
2023-07-28T04:29:36.172Z,2.60
2023-07-28T04:32:39.032Z,2.73
2023-07-28T04:35:42.643Z,2.30
2023-07-28T04:38:45.422Z,2.40
2023-07-28T04:41:48.144Z,2.50
2023-07-28T04:44:50.911Z,2.55
2023-07-28T04:47:54.352Z,2.90
2023-07-28T04:50:57.178Z,3.20
2023-07-28T04:53:59.894Z,2.60
2023-07-28T04:57:02.576Z,2.65
2023-07-28T05:00:06.883Z,2.50
2023-07-28T05:03:10.395Z,3.43
2023-07-28T05:06:14.626Z,3.33
2023-07-28T05:09:17.422Z,2.85
2023-07-28T05:12:20.072Z,2.80
2023-07-28T05:15:24.784Z,2.70
2023-07-28T05:18:27.637Z,2.83
2023-07-28T05:21:30.470Z,2.80
2023-07-28T05:24:34.187Z,2.60
2023-07-28T05:27:37.024Z,3.40
2023-07-28T05:30:39.858Z,3.00
2023-07-28T05:33:42.903Z,9.57
2023-07-28T05:36:45.693Z,3.12
2023-07-28T05:39:48.541Z,3.03
2023-07-28T05:42:51.241Z,3.45
2023-07-28T05:45:54.290Z,5.32
2023-07-28T05:48:57.590Z,3.07
2023-07-28T05:52:00.447Z,2.60
2023-07-28T05:55:03.220Z,2.70
2023-07-28T05:58:06.614Z,3.20
2023-07-28T06:01:09.346Z,2.60
2023-07-28T06:04:12.410Z,2.70
2023-07-28T06:07:15.095Z,2.85
2023-07-28T06:10:17.880Z,3.67
2023-07-28T06:13:20.808Z,2.70
2023-07-28T06:16:23.662Z,2.70
2023-07-28T06:19:26.472Z,2.80
2023-07-28T06:22:29.328Z,2.72
2023-07-28T06:25:32.174Z,3.15
2023-07-28T06:28:35.056Z,3.12
2023-07-28T06:31:38.005Z,2.90
2023-07-28T06:34:40.896Z,2.80
2023-07-28T06:37:43.669Z,2.78
2023-07-28T06:40:46.474Z,3.42
2023-07-28T06:43:50.256Z,3.12
2023-07-28T06:46:53.033Z,3.00
2023-07-28T06:49:55.835Z,2.80
2023-07-28T06:52:58.582Z,3.12
2023-07-28T06:56:01.655Z,2.80
2023-07-28T06:59:14.688Z,2.67
2023-07-28T07:02:18.857Z,3.08
2023-07-28T07:05:21.847Z,3.30
2023-07-28T07:08:24.738Z,4.15
2023-07-28T07:11:27.573Z,3.22
2023-07-28T07:14:30.373Z,4.07
2023-07-28T07:17:33.837Z,3.05
2023-07-28T07:20:39.991Z,4.37
2023-07-28T07:23:43.356Z,3.40
2023-07-28T07:26:46.539Z,3.20
2023-07-28T07:29:49.334Z,3.95
2023-07-28T07:32:52.126Z,3.50
2023-07-28T07:35:55.063Z,3.20
2023-07-28T07:38:57.763Z,3.70
2023-07-28T07:42:01.281Z,3.47
2023-07-28T07:45:05.222Z,3.60
2023-07-28T07:48:08.140Z,4.00
2023-07-28T07:51:10.922Z,3.83
2023-07-28T07:54:17.119Z,3.85
2023-07-28T07:57:19.879Z,3.55
2023-07-28T08:00:22.802Z,3.67
2023-07-28T08:03:25.975Z,3.80
2023-07-28T08:06:28.885Z,4.17
2023-07-28T08:09:32.025Z,4.18
2023-07-28T08:12:34.965Z,3.85
2023-07-28T08:15:37.721Z,3.92
2023-07-28T08:18:40.623Z,4.28
2023-07-28T08:21:43.458Z,4.30
2023-07-28T08:24:46.366Z,4.22
2023-07-28T08:27:49.143Z,3.95
2023-07-28T08:30:59.356Z,4.00
2023-07-28T08:34:02.261Z,4.00
2023-07-28T08:37:05.178Z,4.27
2023-07-28T08:40:08.676Z,4.47
2023-07-28T08:43:12.062Z,4.50
2023-07-28T08:46:15.088Z,3.92
2023-07-28T08:49:17.976Z,4.47
2023-07-28T08:52:20.779Z,4.63
2023-07-28T08:55:24.424Z,4.65
2023-07-28T08:58:27.205Z,5.03
2023-07-28T09:01:31.614Z,4.45
2023-07-28T09:04:34.302Z,4.35
2023-07-28T09:07:37.932Z,6.30
2023-07-28T09:10:45.256Z,4.50
2023-07-28T09:13:50.808Z,4.62
2023-07-28T09:16:54.757Z,4.55
2023-07-28T09:19:58.158Z,5.78
2023-07-28T09:23:00.965Z,4.70
2023-07-28T09:26:07.387Z,4.78
2023-07-28T09:29:21.662Z,4.07
2023-07-28T09:32:35.275Z,4.20
2023-07-28T09:35:49.146Z,4.80
2023-07-28T09:38:52.755Z,5.40
2023-07-28T09:41:59.712Z,6.85
2023-07-28T09:45:02.607Z,4.45
2023-07-28T09:48:08.845Z,4.97
2023-07-28T09:51:19.113Z,4.65
2023-07-28T09:54:29.001Z,4.80
2023-07-28T09:57:34.453Z,4.60
2023-07-28T10:00:37.507Z,4.45
2023-07-28T10:03:40.989Z,5.22
2023-07-28T10:06:44.222Z,5.10
2023-07-28T10:09:47.175Z,4.77
2023-07-28T10:12:51.929Z,5.43
2023-07-28T10:15:54.854Z,5.22
2023-07-28T10:18:58.223Z,5.05
2023-07-28T10:22:09.552Z,4.95
2023-07-28T10:25:12.413Z,5.00
2023-07-28T10:28:29.111Z,4.70
2023-07-28T10:31:32.178Z,5.40
2023-07-28T10:34:35.057Z,9.10
2023-07-28T10:37:38.297Z,5.28
2023-07-28T10:40:41.214Z,5.40
2023-07-28T10:43:45.222Z,5.20
2023-07-28T10:46:48.217Z,5.35
2023-07-28T10:49:50.986Z,5.20
2023-07-28T10:52:53.922Z,5.20
2023-07-28T10:55:56.802Z,5.83
2023-07-28T10:59:01.428Z,5.43
2023-07-28T11:02:04.207Z,5.20
2023-07-28T11:05:12.623Z,5.93
2023-07-28T11:08:15.419Z,5.50
2023-07-28T11:11:18.289Z,5.13
2023-07-28T11:14:21.860Z,5.10
2023-07-28T11:17:26.462Z,5.90
2023-07-28T11:20:30.167Z,7.15
2023-07-28T11:23:34.321Z,5.60
2023-07-28T11:26:38.379Z,5.40
2023-07-28T11:29:41.887Z,5.37
2023-07-28T11:32:46.664Z,5.30
2023-07-28T11:35:49.652Z,5.70
2023-07-28T11:38:53.339Z,5.18
2023-07-28T11:41:56.609Z,5.40
2023-07-28T11:45:00.347Z,5.50
2023-07-28T11:48:07.746Z,5.40
2023-07-28T11:51:15.120Z,5.07
2023-07-28T11:54:23.335Z,5.50
2023-07-28T11:57:27.522Z,5.40
2023-07-28T12:00:37.607Z,5.57
2023-07-28T12:03:40.570Z,5.40
2023-07-28T12:07:08.843Z,6.03
2023-07-28T12:10:12.088Z,5.40
2023-07-28T12:20:17.823Z,5.90
2023-07-28T12:26:28.243Z,5.40
2023-07-28T12:29:31.524Z,5.37
2023-07-28T12:32:37.249Z,5.72
2023-07-28T12:38:46.915Z,5.28
2023-07-28T12:42:14.024Z,5.00
2023-07-28T12:48:21.838Z,5.50
2023-07-28T12:54:30.686Z,5.20
2023-07-28T12:57:34.336Z,5.03
2023-07-28T13:03:43.007Z,5.30
2023-07-28T13:06:46.239Z,5.25
2023-07-28T13:09:49.804Z,5.40
2023-07-28T13:12:56.415Z,5.20
2023-07-28T13:15:59.791Z,5.43
2023-07-28T13:19:02.612Z,6.43
2023-07-28T13:22:06.519Z,5.80
2023-07-28T13:25:10.484Z,5.78
2023-07-28T13:28:13.523Z,5.50
2023-07-28T13:31:18.128Z,5.80
2023-07-28T13:34:21.007Z,5.70
2023-07-28T13:37:23.785Z,5.55
2023-07-28T13:40:28.575Z,6.60
2023-07-28T13:43:32.015Z,5.70
2023-07-28T13:46:34.852Z,6.00
2023-07-28T13:49:51.660Z,6.87
2023-07-28T13:52:54.936Z,5.80
2023-07-28T13:55:58.435Z,5.70
2023-07-28T13:59:01.535Z,6.55
2023-07-28T14:02:04.687Z,6.00
2023-07-28T14:05:08.628Z,5.90
2023-07-28T14:08:11.529Z,6.60
2023-07-28T14:11:14.372Z,6.07
2023-07-28T14:14:17.176Z,6.00
2023-07-28T14:17:20.147Z,5.90
2023-07-28T14:20:22.973Z,5.95
2023-07-28T14:23:28.231Z,6.40
2023-07-28T14:26:31.018Z,6.10
2023-07-28T14:29:33.897Z,6.12
2023-07-28T14:32:36.662Z,5.90
2023-07-28T14:35:39.669Z,5.97
2023-07-28T14:38:42.408Z,5.93
2023-07-28T14:41:45.630Z,5.93
2023-07-28T14:44:48.506Z,5.70
2023-07-28T14:47:51.592Z,5.73
2023-07-28T14:50:54.807Z,5.70
2023-07-28T14:53:57.736Z,5.68
2023-07-28T14:57:00.568Z,5.80
2023-07-28T15:00:04.393Z,6.18
2023-07-28T15:03:07.138Z,5.70
2023-07-28T15:06:10.357Z,5.75
2023-07-28T15:09:13.298Z,5.50
2023-07-28T15:12:16.137Z,7.32
2023-07-28T15:15:18.946Z,5.20
2023-07-28T15:18:21.850Z,5.30
2023-07-28T15:21:25.630Z,5.80
2023-07-28T15:24:28.421Z,5.80
2023-07-28T15:27:31.219Z,5.10
2023-07-28T15:30:34.116Z,5.10
2023-07-28T15:33:36.878Z,5.17
2023-07-28T15:36:39.732Z,4.32
2023-07-28T15:39:42.580Z,5.10
2023-07-28T15:42:45.775Z,4.90
2023-07-28T15:45:53.411Z,5.78
2023-07-28T15:48:56.432Z,5.77
2023-07-28T15:51:59.323Z,5.10
2023-07-28T15:55:04.778Z,4.18
2023-07-28T15:58:07.627Z,4.70
2023-07-28T16:01:10.539Z,5.10
2023-07-28T16:04:13.339Z,4.30
2023-07-28T16:07:16.285Z,5.00
2023-07-28T16:10:19.094Z,3.87
2023-07-28T16:13:22.646Z,4.30
2023-07-28T16:16:25.500Z,4.05
2023-07-28T16:19:28.513Z,4.00
2023-07-28T16:22:31.231Z,3.90
2023-07-28T16:25:34.075Z,4.32
2023-07-28T16:28:36.894Z,4.62
2023-07-28T16:31:39.736Z,4.10
2023-07-28T16:34:42.489Z,3.80
2023-07-28T16:37:45.276Z,3.65
2023-07-28T16:40:48.185Z,3.97
2023-07-28T16:43:51.290Z,4.37
2023-07-28T16:46:53.991Z,3.72
2023-07-28T16:49:56.914Z,3.90
2023-07-28T16:52:59.752Z,4.05
2023-07-28T16:56:02.506Z,3.70
2023-07-28T16:59:05.306Z,3.92
2023-07-28T17:02:08.124Z,3.55
2023-07-28T17:05:10.982Z,3.60
2023-07-28T17:08:13.839Z,3.80
2023-07-28T17:11:16.701Z,3.67
2023-07-28T17:14:19.433Z,10.40
2023-07-28T17:17:22.250Z,3.70
2023-07-28T17:20:25.020Z,3.70
2023-07-28T17:23:28.331Z,3.95
2023-07-28T17:26:31.221Z,4.07
2023-07-28T17:29:34.006Z,3.70
2023-07-28T17:32:36.886Z,3.80
2023-07-28T17:35:39.669Z,4.30
2023-07-28T17:38:42.682Z,4.37
2023-07-28T17:41:45.936Z,3.70
2023-07-28T17:44:48.976Z,3.90
2023-07-28T17:47:51.738Z,3.80
2023-07-28T17:50:55.047Z,3.87
2023-07-28T17:53:57.819Z,3.90
2023-07-28T17:57:00.708Z,3.80
2023-07-28T18:00:04.293Z,3.80
2023-07-28T18:03:07.476Z,3.60
2023-07-28T18:06:10.801Z,4.67
2023-07-28T18:09:13.685Z,3.53
2023-07-28T18:12:16.543Z,3.75
2023-07-28T18:15:19.938Z,3.60
2023-07-28T18:18:22.965Z,3.75
2023-07-28T18:21:25.932Z,4.10
2023-07-28T18:24:28.653Z,3.75
2023-07-28T18:27:31.556Z,4.00
2023-07-28T18:30:35.201Z,3.60
2023-07-28T18:33:38.146Z,3.97
2023-07-28T18:36:41.292Z,3.73
2023-07-28T18:39:44.145Z,3.75
2023-07-28T18:42:47.035Z,4.40
2023-07-28T18:45:49.976Z,3.10
2023-07-28T18:48:53.186Z,3.58
2023-07-28T18:51:55.946Z,4.33
2023-07-28T18:54:58.844Z,3.60
2023-07-28T18:58:01.705Z,3.53
2023-07-28T19:01:04.760Z,3.80
2023-07-28T19:04:07.914Z,3.35
2023-07-28T19:07:10.727Z,4.57
2023-07-28T19:10:13.638Z,4.22
2023-07-28T19:13:16.472Z,3.80
2023-07-28T19:16:19.547Z,3.40
2023-07-28T19:19:22.606Z,3.80
2023-07-28T19:22:25.562Z,3.90
2023-07-28T19:25:29.723Z,8.60
2023-07-28T19:28:32.686Z,3.90
2023-07-28T19:31:35.892Z,3.72
2023-07-28T19:34:39.013Z,3.45
2023-07-28T19:37:45.108Z,3.93
2023-07-28T19:40:48.429Z,3.65
2023-07-28T19:43:51.143Z,4.93
2023-07-28T19:46:54.088Z,3.70
2023-07-28T19:50:10.296Z,3.53
2023-07-28T19:53:16.434Z,3.57
2023-07-28T19:56:19.306Z,4.07
2023-07-28T19:59:22.472Z,4.75
2023-07-28T20:02:25.305Z,3.60
2023-07-28T20:05:28.272Z,3.92
2023-07-28T20:08:31.040Z,5.00
2023-07-28T20:11:33.960Z,3.62
2023-07-28T20:14:36.740Z,3.55
2023-07-28T20:17:39.716Z,3.72
2023-07-28T20:20:42.572Z,5.22
2023-07-28T20:23:45.486Z,3.20
2023-07-28T20:26:48.198Z,3.50
2023-07-28T20:29:51.237Z,3.47
2023-07-28T20:32:54.124Z,3.42
2023-07-28T20:35:56.930Z,3.30
2023-07-28T20:39:00.217Z,3.93
2023-07-28T20:42:03.013Z,4.75
2023-07-28T20:45:06.470Z,3.45
2023-07-28T20:48:10.029Z,7.22
2023-07-28T20:51:12.793Z,3.62
2023-07-28T20:54:15.624Z,3.70
2023-07-28T20:57:18.622Z,3.55
2023-07-28T21:00:21.681Z,3.40
2023-07-28T21:03:24.534Z,3.70
2023-07-28T21:06:27.621Z,3.78
2023-07-28T21:09:30.342Z,3.20
2023-07-28T21:12:33.026Z,3.22
2023-07-28T21:15:37.065Z,3.80
2023-07-28T21:18:39.827Z,5.55
2023-07-28T21:21:42.582Z,4.03
2023-07-28T21:24:45.305Z,3.33
2023-07-28T21:27:48.111Z,3.60
2023-07-28T21:30:50.881Z,3.30
2023-07-28T21:33:53.590Z,3.62
2023-07-28T21:36:56.350Z,3.95
2023-07-28T21:39:59.170Z,3.47
2023-07-28T21:43:02.005Z,3.05
2023-07-28T21:46:05.062Z,3.33
2023-07-28T21:49:08.081Z,3.40
2023-07-28T21:52:10.850Z,3.20
2023-07-28T21:55:14.924Z,3.90
2023-07-28T21:58:17.796Z,3.83
2023-07-28T22:01:20.832Z,3.00
2023-07-28T22:04:23.619Z,2.90
2023-07-28T22:07:26.361Z,3.90
2023-07-28T22:10:29.042Z,3.27
2023-07-28T22:13:31.844Z,3.15
2023-07-28T22:16:35.363Z,3.40
2023-07-28T22:19:38.469Z,3.40
2023-07-28T22:22:41.200Z,3.15
2023-07-28T22:25:45.420Z,4.03
2023-07-28T22:28:48.200Z,3.10
2023-07-28T22:31:50.904Z,3.70
2023-07-28T22:34:53.668Z,3.17
2023-07-28T22:37:56.331Z,3.25
2023-07-28T22:40:59.265Z,3.60
2023-07-28T22:44:03.724Z,3.03
2023-07-28T22:47:06.694Z,3.20
2023-07-28T22:50:10.435Z,3.03
2023-07-28T22:53:13.295Z,3.10
2023-07-28T22:56:16.125Z,3.50
2023-07-28T22:59:18.900Z,2.80
2023-07-28T23:02:21.642Z,3.00
2023-07-28T23:05:26.019Z,3.15
2023-07-28T23:08:29.714Z,3.12
2023-07-28T23:11:35.892Z,3.83
2023-07-28T23:14:39.042Z,3.53
2023-07-28T23:17:43.043Z,3.35
2023-07-28T23:20:45.663Z,3.20
2023-07-28T23:23:48.367Z,3.25
2023-07-28T23:26:50.999Z,3.63
2023-07-28T23:29:54.039Z,3.87
2023-07-28T23:32:56.641Z,3.42
2023-07-28T23:35:59.354Z,3.00
2023-07-28T23:39:02.050Z,3.00
2023-07-28T23:42:05.078Z,3.23
2023-07-28T23:45:08.722Z,3.58
2023-07-28T23:48:11.464Z,2.90
2023-07-28T23:51:14.818Z,3.45
2023-07-28T23:54:17.607Z,3.40
2023-07-28T23:57:20.366Z,3.17
